sensor_id;sensor_type;location;lat;lon;timestamp;temperature;humidity
21563;DHT22;10942;47.894;11.424;2023-01-28T00:00:07;-1.00;99.90
21563;DHT22;10942;47.894;11.424;2023-01-28T00:02:53;-1.00;99.90
21563;DHT22;10942;47.894;11.424;2023-01-28T00:05:19;-1.00;99.90
21563;DHT22;10942;47.894;11.424;2023-01-28T00:07:48;-1.00;99.90
21563;DHT22;10942;47.894;11.424;2023-01-28T00:10:14;-1.00;99.90
21563;DHT22;10942;47.894;11.424;2023-01-28T00:12:40;-0.90;99.90
21563;DHT22;10942;47.894;11.424;2023-01-28T00:15:06;-0.90;99.90
21563;DHT22;10942;47.894;11.424;2023-01-28T00:17:32;-1.00;99.90
21563;DHT22;10942;47.894;11.424;2023-01-28T00:19:58;-0.90;99.90
21563;DHT22;10942;47.894;11.424;2023-01-28T00:22:23;-1.00;99.90
21563;DHT22;10942;47.894;11.424;2023-01-28T00:24:49;-1.00;99.90
21563;DHT22;10942;47.894;11.424;2023-01-28T00:27:15;-1.00;99.90
21563;DHT22;10942;47.894;11.424;2023-01-28T00:29:40;-0.90;99.90
21563;DHT22;10942;47.894;11.424;2023-01-28T00:32:06;-1.00;99.90
21563;DHT22;10942;47.894;11.424;2023-01-28T00:34:32;-1.00;99.90
21563;DHT22;10942;47.894;11.424;2023-01-28T00:36:58;-0.90;99.90
21563;DHT22;10942;47.894;11.424;2023-01-28T00:39:25;-0.90;99.90
21563;DHT22;10942;47.894;11.424;2023-01-28T00:41:51;-0.90;99.90
21563;DHT22;10942;47.894;11.424;2023-01-28T00:44:19;-0.90;99.90
21563;DHT22;10942;47.894;11.424;2023-01-28T00:46:45;-0.90;99.90
21563;DHT22;10942;47.894;11.424;2023-01-28T00:49:11;-0.90;99.90
21563;DHT22;10942;47.894;11.424;2023-01-28T00:51:36;-1.00;99.90
21563;DHT22;10942;47.894;11.424;2023-01-28T00:54:02;-1.00;99.90
21563;DHT22;10942;47.894;11.424;2023-01-28T00:56:28;-1.00;99.90
21563;DHT22;10942;47.894;11.424;2023-01-28T00:58:54;-1.00;99.90
21563;DHT22;10942;47.894;11.424;2023-01-28T01:01:22;-1.10;99.90
21563;DHT22;10942;47.894;11.424;2023-01-28T01:03:48;-1.10;99.90
21563;DHT22;10942;47.894;11.424;2023-01-28T01:06:23;-1.10;99.90
21563;DHT22;10942;47.894;11.424;2023-01-28T01:08:50;-1.10;99.90
21563;DHT22;10942;47.894;11.424;2023-01-28T01:11:17;-1.20;99.90
21563;DHT22;10942;47.894;11.424;2023-01-28T01:13:48;-1.20;99.90
21563;DHT22;10942;47.894;11.424;2023-01-28T01:16:15;-1.30;99.90
21563;DHT22;10942;47.894;11.424;2023-01-28T01:18:42;-1.30;99.90
21563;DHT22;10942;47.894;11.424;2023-01-28T01:21:10;-1.20;99.90
21563;DHT22;10942;47.894;11.424;2023-01-28T01:23:37;-1.20;99.90
21563;DHT22;10942;47.894;11.424;2023-01-28T01:26:04;-1.20;99.90
21563;DHT22;10942;47.894;11.424;2023-01-28T01:28:30;-1.20;99.90
21563;DHT22;10942;47.894;11.424;2023-01-28T01:31:08;-1.20;99.90
21563;DHT22;10942;47.894;11.424;2023-01-28T01:33:35;-1.20;99.90
21563;DHT22;10942;47.894;11.424;2023-01-28T01:36:01;-1.10;99.90
21563;DHT22;10942;47.894;11.424;2023-01-28T01:38:27;-1.20;99.90
21563;DHT22;10942;47.894;11.424;2023-01-28T01:41:00;-1.20;99.90
21563;DHT22;10942;47.894;11.424;2023-01-28T01:44:05;-1.20;99.90
21563;DHT22;10942;47.894;11.424;2023-01-28T01:46:38;-1.20;99.90
21563;DHT22;10942;47.894;11.424;2023-01-28T01:49:20;-1.20;99.90
21563;DHT22;10942;47.894;11.424;2023-01-28T01:52:10;-1.20;99.90
21563;DHT22;10942;47.894;11.424;2023-01-28T01:54:40;-1.10;99.90
21563;DHT22;10942;47.894;11.424;2023-01-28T01:57:09;-1.10;99.90
21563;DHT22;10942;47.894;11.424;2023-01-28T01:59:36;-1.20;99.90
21563;DHT22;10942;47.894;11.424;2023-01-28T02:02:06;-1.10;99.90
21563;DHT22;10942;47.894;11.424;2023-01-28T02:04:43;-1.10;99.90
21563;DHT22;10942;47.894;11.424;2023-01-28T02:07:15;-1.20;99.90
21563;DHT22;10942;47.894;11.424;2023-01-28T02:09:42;-1.20;99.90
21563;DHT22;10942;47.894;11.424;2023-01-28T02:12:17;-1.20;99.90
21563;DHT22;10942;47.894;11.424;2023-01-28T02:14:47;-1.20;99.90
21563;DHT22;10942;47.894;11.424;2023-01-28T02:17:15;-1.20;99.90
21563;DHT22;10942;47.894;11.424;2023-01-28T02:19:55;-1.20;99.90
21563;DHT22;10942;47.894;11.424;2023-01-28T02:38:49;-1.30;99.90
21563;DHT22;10942;47.894;11.424;2023-01-28T02:41:39;-1.20;99.90
21563;DHT22;10942;47.894;11.424;2023-01-28T02:44:07;-1.20;99.90
21563;DHT22;10942;47.894;11.424;2023-01-28T02:46:36;-1.20;99.90
21563;DHT22;10942;47.894;11.424;2023-01-28T02:49:27;-1.10;99.90
21563;DHT22;10942;47.894;11.424;2023-01-28T02:58:39;-1.20;99.90
21563;DHT22;10942;47.894;11.424;2023-01-28T03:01:26;-1.20;99.90
21563;DHT22;10942;47.894;11.424;2023-01-28T03:04:00;-1.20;99.90
21563;DHT22;10942;47.894;11.424;2023-01-28T03:06:31;-1.20;99.90
21563;DHT22;10942;47.894;11.424;2023-01-28T03:09:03;-1.20;99.90
21563;DHT22;10942;47.894;11.424;2023-01-28T03:11:59;-1.20;99.90
21563;DHT22;10942;47.894;11.424;2023-01-28T03:14:55;-1.20;99.90
21563;DHT22;10942;47.894;11.424;2023-01-28T03:20:41;-1.20;99.90
21563;DHT22;10942;47.894;11.424;2023-01-28T03:23:51;-1.20;99.90
21563;DHT22;10942;47.894;11.424;2023-01-28T03:26:39;-1.20;99.90
21563;DHT22;10942;47.894;11.424;2023-01-28T03:29:25;-1.30;99.90
21563;DHT22;10942;47.894;11.424;2023-01-28T03:32:15;-1.30;99.90
21563;DHT22;10942;47.894;11.424;2023-01-28T03:35:00;-1.40;99.90
21563;DHT22;10942;47.894;11.424;2023-01-28T03:37:44;-1.40;99.90
21563;DHT22;10942;47.894;11.424;2023-01-28T03:40:19;-1.40;99.90
21563;DHT22;10942;47.894;11.424;2023-01-28T03:42:46;-1.40;99.90
21563;DHT22;10942;47.894;11.424;2023-01-28T03:45:33;-1.40;99.90
21563;DHT22;10942;47.894;11.424;2023-01-28T03:48:01;-1.40;99.90
21563;DHT22;10942;47.894;11.424;2023-01-28T03:50:27;-1.40;99.90
21563;DHT22;10942;47.894;11.424;2023-01-28T03:53:14;-1.40;99.90
21563;DHT22;10942;47.894;11.424;2023-01-28T03:55:49;-1.40;99.90
21563;DHT22;10942;47.894;11.424;2023-01-28T03:58:16;-1.30;99.90
21563;DHT22;10942;47.894;11.424;2023-01-28T04:00:43;-1.30;99.90
21563;DHT22;10942;47.894;11.424;2023-01-28T04:03:13;-1.30;99.90
21563;DHT22;10942;47.894;11.424;2023-01-28T04:06:01;-1.30;99.90
21563;DHT22;10942;47.894;11.424;2023-01-28T04:08:45;-1.40;99.90
21563;DHT22;10942;47.894;11.424;2023-01-28T04:11:27;-1.40;99.90
21563;DHT22;10942;47.894;11.424;2023-01-28T04:13:54;-1.40;99.90
21563;DHT22;10942;47.894;11.424;2023-01-28T04:16:21;-1.40;99.90
21563;DHT22;10942;47.894;11.424;2023-01-28T04:18:47;-1.40;99.90
21563;DHT22;10942;47.894;11.424;2023-01-28T04:21:13;-1.40;99.90
21563;DHT22;10942;47.894;11.424;2023-01-28T04:23:39;-1.50;99.90
21563;DHT22;10942;47.894;11.424;2023-01-28T04:26:06;-1.50;99.90
21563;DHT22;10942;47.894;11.424;2023-01-28T04:28:33;-1.50;99.90
21563;DHT22;10942;47.894;11.424;2023-01-28T04:30:59;-1.40;99.90
21563;DHT22;10942;47.894;11.424;2023-01-28T04:33:54;-1.50;99.90
21563;DHT22;10942;47.894;11.424;2023-01-28T04:36:48;-1.50;99.90
21563;DHT22;10942;47.894;11.424;2023-01-28T04:39:39;-1.50;99.90
21563;DHT22;10942;47.894;11.424;2023-01-28T04:42:25;-1.50;99.90
21563;DHT22;10942;47.894;11.424;2023-01-28T04:45:11;-1.50;99.90
21563;DHT22;10942;47.894;11.424;2023-01-28T04:47:56;-1.60;99.90
21563;DHT22;10942;47.894;11.424;2023-01-28T04:50:41;-1.50;99.90
21563;DHT22;10942;47.894;11.424;2023-01-28T04:53:34;-1.50;99.90
21563;DHT22;10942;47.894;11.424;2023-01-28T04:56:05;-1.40;99.90
21563;DHT22;10942;47.894;11.424;2023-01-28T04:58:45;-1.50;99.90
21563;DHT22;10942;47.894;11.424;2023-01-28T05:01:14;-1.50;99.90
21563;DHT22;10942;47.894;11.424;2023-01-28T05:03:39;-1.50;99.90
21563;DHT22;10942;47.894;11.424;2023-01-28T05:06:06;-1.50;99.90
21563;DHT22;10942;47.894;11.424;2023-01-28T05:08:41;-1.50;99.90
21563;DHT22;10942;47.894;11.424;2023-01-28T05:11:07;-1.60;99.90
21563;DHT22;10942;47.894;11.424;2023-01-28T05:13:33;-1.50;99.90
21563;DHT22;10942;47.894;11.424;2023-01-28T05:15:59;-1.50;99.90
21563;DHT22;10942;47.894;11.424;2023-01-28T05:18:25;-1.50;99.90
21563;DHT22;10942;47.894;11.424;2023-01-28T05:21:09;-1.50;99.90
21563;DHT22;10942;47.894;11.424;2023-01-28T05:23:36;-1.50;99.90
21563;DHT22;10942;47.894;11.424;2023-01-28T05:26:02;-1.50;99.90
21563;DHT22;10942;47.894;11.424;2023-01-28T05:28:28;-1.50;99.90
21563;DHT22;10942;47.894;11.424;2023-01-28T05:30:56;-1.40;99.90
21563;DHT22;10942;47.894;11.424;2023-01-28T05:33:26;-1.40;99.90
21563;DHT22;10942;47.894;11.424;2023-01-28T05:35:52;-1.50;99.90
21563;DHT22;10942;47.894;11.424;2023-01-28T05:38:19;-1.40;99.90
21563;DHT22;10942;47.894;11.424;2023-01-28T05:40:46;-1.40;99.90
21563;DHT22;10942;47.894;11.424;2023-01-28T05:43:12;-1.40;99.90
21563;DHT22;10942;47.894;11.424;2023-01-28T05:45:44;-1.50;99.90
21563;DHT22;10942;47.894;11.424;2023-01-28T05:48:14;-1.50;99.90
21563;DHT22;10942;47.894;11.424;2023-01-28T05:51:04;-1.50;99.90
21563;DHT22;10942;47.894;11.424;2023-01-28T05:53:33;-1.40;99.90
21563;DHT22;10942;47.894;11.424;2023-01-28T05:55:59;-1.40;99.90
21563;DHT22;10942;47.894;11.424;2023-01-28T05:58:27;-1.40;99.90
21563;DHT22;10942;47.894;11.424;2023-01-28T06:00:58;-1.50;99.90
21563;DHT22;10942;47.894;11.424;2023-01-28T06:03:29;-1.40;99.90
21563;DHT22;10942;47.894;11.424;2023-01-28T06:05:55;-1.50;99.90
21563;DHT22;10942;47.894;11.424;2023-01-28T06:08:21;-1.50;99.90
21563;DHT22;10942;47.894;11.424;2023-01-28T06:10:46;-1.40;99.90
21563;DHT22;10942;47.894;11.424;2023-01-28T06:13:12;-1.50;99.90
21563;DHT22;10942;47.894;11.424;2023-01-28T06:16:04;-1.50;99.90
21563;DHT22;10942;47.894;11.424;2023-01-28T06:18:49;-1.40;99.90
21563;DHT22;10942;47.894;11.424;2023-01-28T06:21:14;-1.40;99.90
21563;DHT22;10942;47.894;11.424;2023-01-28T06:23:40;-1.40;99.90
21563;DHT22;10942;47.894;11.424;2023-01-28T06:26:07;-1.40;99.90
21563;DHT22;10942;47.894;11.424;2023-01-28T06:28:35;-1.40;99.90
21563;DHT22;10942;47.894;11.424;2023-01-28T06:31:00;-1.30;99.90
21563;DHT22;10942;47.894;11.424;2023-01-28T06:33:26;-1.40;99.90
21563;DHT22;10942;47.894;11.424;2023-01-28T06:35:53;-1.40;99.90
21563;DHT22;10942;47.894;11.424;2023-01-28T06:38:19;-1.30;99.90
21563;DHT22;10942;47.894;11.424;2023-01-28T06:40:50;-1.30;99.90
21563;DHT22;10942;47.894;11.424;2023-01-28T06:43:16;-1.30;99.90
21563;DHT22;10942;47.894;11.424;2023-01-28T06:45:42;-1.30;99.90
21563;DHT22;10942;47.894;11.424;2023-01-28T06:48:08;-1.30;99.90
21563;DHT22;10942;47.894;11.424;2023-01-28T06:50:33;-1.40;99.90
21563;DHT22;10942;47.894;11.424;2023-01-28T06:52:59;-1.40;99.90
21563;DHT22;10942;47.894;11.424;2023-01-28T06:55:25;-1.40;99.90
21563;DHT22;10942;47.894;11.424;2023-01-28T06:57:50;-1.30;99.90
21563;DHT22;10942;47.894;11.424;2023-01-28T07:00:17;-1.30;99.90
21563;DHT22;10942;47.894;11.424;2023-01-28T07:02:43;-1.30;99.90
21563;DHT22;10942;47.894;11.424;2023-01-28T07:05:09;-1.30;99.90
21563;DHT22;10942;47.894;11.424;2023-01-28T07:07:35;-1.30;99.90
21563;DHT22;10942;47.894;11.424;2023-01-28T07:10:01;-1.30;99.90
21563;DHT22;10942;47.894;11.424;2023-01-28T07:12:26;-1.30;99.90
21563;DHT22;10942;47.894;11.424;2023-01-28T07:14:52;-1.30;99.90
21563;DHT22;10942;47.894;11.424;2023-01-28T07:17:18;-1.30;99.90
21563;DHT22;10942;47.894;11.424;2023-01-28T07:19:43;-1.30;99.90
21563;DHT22;10942;47.894;11.424;2023-01-28T07:22:09;-1.30;99.90
21563;DHT22;10942;47.894;11.424;2023-01-28T07:24:35;-1.30;99.90
21563;DHT22;10942;47.894;11.424;2023-01-28T07:27:00;-1.30;99.90
21563;DHT22;10942;47.894;11.424;2023-01-28T07:29:26;-1.30;99.90
21563;DHT22;10942;47.894;11.424;2023-01-28T07:31:52;-1.30;99.90
21563;DHT22;10942;47.894;11.424;2023-01-28T07:34:17;-1.20;99.90
21563;DHT22;10942;47.894;11.424;2023-01-28T07:36:43;-1.20;99.90
21563;DHT22;10942;47.894;11.424;2023-01-28T07:39:09;-1.20;99.90
21563;DHT22;10942;47.894;11.424;2023-01-28T07:41:34;-1.20;99.90
21563;DHT22;10942;47.894;11.424;2023-01-28T07:44:04;-1.20;99.90
21563;DHT22;10942;47.894;11.424;2023-01-28T07:46:30;-1.20;99.90
21563;DHT22;10942;47.894;11.424;2023-01-28T07:48:56;-1.20;99.90
21563;DHT22;10942;47.894;11.424;2023-01-28T07:51:21;-1.20;99.90
21563;DHT22;10942;47.894;11.424;2023-01-28T07:53:47;-1.20;99.90
21563;DHT22;10942;47.894;11.424;2023-01-28T07:56:13;-1.10;99.90
21563;DHT22;10942;47.894;11.424;2023-01-28T07:58:39;-1.10;99.90
21563;DHT22;10942;47.894;11.424;2023-01-28T08:01:05;-1.20;99.90
21563;DHT22;10942;47.894;11.424;2023-01-28T08:03:30;-1.10;99.90
21563;DHT22;10942;47.894;11.424;2023-01-28T08:05:57;-1.00;99.90
21563;DHT22;10942;47.894;11.424;2023-01-28T08:08:24;-1.00;99.90
21563;DHT22;10942;47.894;11.424;2023-01-28T08:10:51;-1.00;99.90
21563;DHT22;10942;47.894;11.424;2023-01-28T08:13:18;-1.10;99.90
21563;DHT22;10942;47.894;11.424;2023-01-28T08:15:44;-1.10;99.90
21563;DHT22;10942;47.894;11.424;2023-01-28T08:18:11;-1.10;99.90
21563;DHT22;10942;47.894;11.424;2023-01-28T08:20:38;-1.10;99.90
21563;DHT22;10942;47.894;11.424;2023-01-28T08:23:12;-1.00;99.90
21563;DHT22;10942;47.894;11.424;2023-01-28T08:25:38;-1.00;99.90
21563;DHT22;10942;47.894;11.424;2023-01-28T08:28:05;-1.00;99.90
21563;DHT22;10942;47.894;11.424;2023-01-28T08:30:32;-0.80;99.90
21563;DHT22;10942;47.894;11.424;2023-01-28T08:32:58;-0.80;99.90
21563;DHT22;10942;47.894;11.424;2023-01-28T08:35:25;-0.70;99.90
21563;DHT22;10942;47.894;11.424;2023-01-28T08:37:51;-0.70;99.90
21563;DHT22;10942;47.894;11.424;2023-01-28T08:40:17;-0.60;99.90
21563;DHT22;10942;47.894;11.424;2023-01-28T08:42:50;-0.60;99.90
21563;DHT22;10942;47.894;11.424;2023-01-28T08:45:17;-0.50;99.90
21563;DHT22;10942;47.894;11.424;2023-01-28T08:47:57;-0.50;99.90
21563;DHT22;10942;47.894;11.424;2023-01-28T08:50:25;-0.60;99.90
21563;DHT22;10942;47.894;11.424;2023-01-28T08:52:56;-0.60;99.90
21563;DHT22;10942;47.894;11.424;2023-01-28T08:55:22;-0.60;99.90
21563;DHT22;10942;47.894;11.424;2023-01-28T08:57:48;-0.70;99.90
21563;DHT22;10942;47.894;11.424;2023-01-28T09:00:14;-0.60;99.90
21563;DHT22;10942;47.894;11.424;2023-01-28T09:02:40;-0.70;99.90
21563;DHT22;10942;47.894;11.424;2023-01-28T09:05:06;-0.70;99.90
21563;DHT22;10942;47.894;11.424;2023-01-28T09:07:36;-0.70;99.90
21563;DHT22;10942;47.894;11.424;2023-01-28T09:10:03;-0.70;99.90
21563;DHT22;10942;47.894;11.424;2023-01-28T09:12:30;-0.70;99.90
21563;DHT22;10942;47.894;11.424;2023-01-28T09:14:56;-0.70;99.90
21563;DHT22;10942;47.894;11.424;2023-01-28T09:17:22;-0.70;99.90
21563;DHT22;10942;47.894;11.424;2023-01-28T09:19:48;-0.70;99.90
21563;DHT22;10942;47.894;11.424;2023-01-28T09:22:15;-0.70;99.90
21563;DHT22;10942;47.894;11.424;2023-01-28T09:24:41;-0.60;99.90
21563;DHT22;10942;47.894;11.424;2023-01-28T09:27:06;-0.60;99.90
21563;DHT22;10942;47.894;11.424;2023-01-28T09:29:35;-0.50;99.90
21563;DHT22;10942;47.894;11.424;2023-01-28T09:32:03;-0.50;99.90
21563;DHT22;10942;47.894;11.424;2023-01-28T09:34:29;-0.50;99.90
21563;DHT22;10942;47.894;11.424;2023-01-28T09:36:54;-0.60;99.90
21563;DHT22;10942;47.894;11.424;2023-01-28T09:39:20;-0.60;99.90
21563;DHT22;10942;47.894;11.424;2023-01-28T09:44:51;-0.60;99.90
21563;DHT22;10942;47.894;11.424;2023-01-28T09:49:59;-0.50;99.90
21563;DHT22;10942;47.894;11.424;2023-01-28T09:52:25;-0.50;99.90
21563;DHT22;10942;47.894;11.424;2023-01-28T09:55:04;-0.50;99.90
21563;DHT22;10942;47.894;11.424;2023-01-28T09:57:46;-0.30;99.90
21563;DHT22;10942;47.894;11.424;2023-01-28T10:00:20;-0.30;99.90
21563;DHT22;10942;47.894;11.424;2023-01-28T10:09:11;0.00;99.90
21563;DHT22;10942;47.894;11.424;2023-01-28T10:17:12;0.20;99.90
21563;DHT22;10942;47.894;11.424;2023-01-28T10:19:57;0.40;99.90
21563;DHT22;10942;47.894;11.424;2023-01-28T10:22:31;0.50;99.90
21563;DHT22;10942;47.894;11.424;2023-01-28T10:25:04;0.70;99.90
21563;DHT22;10942;47.894;11.424;2023-01-28T10:27:32;0.60;99.90
21563;DHT22;10942;47.894;11.424;2023-01-28T10:29:59;0.60;99.90
21563;DHT22;10942;47.894;11.424;2023-01-28T10:32:37;0.70;99.90
21563;DHT22;10942;47.894;11.424;2023-01-28T10:35:08;0.80;99.90
21563;DHT22;10942;47.894;11.424;2023-01-28T10:37:35;0.80;99.90
21563;DHT22;10942;47.894;11.424;2023-01-28T10:40:01;0.80;99.90
21563;DHT22;10942;47.894;11.424;2023-01-28T10:48:22;1.20;99.90
21563;DHT22;10942;47.894;11.424;2023-01-28T10:50:54;1.50;99.90
21563;DHT22;10942;47.894;11.424;2023-01-28T10:55:59;2.10;99.90
21563;DHT22;10942;47.894;11.424;2023-01-28T10:58:28;2.20;99.90
21563;DHT22;10942;47.894;11.424;2023-01-28T11:00:58;2.30;99.90
21563;DHT22;10942;47.894;11.424;2023-01-28T11:03:24;2.40;99.90
21563;DHT22;10942;47.894;11.424;2023-01-28T11:05:56;2.90;99.90
21563;DHT22;10942;47.894;11.424;2023-01-28T11:08:24;3.30;99.90
21563;DHT22;10942;47.894;11.424;2023-01-28T11:10:51;3.60;99.90
21563;DHT22;10942;47.894;11.424;2023-01-28T11:16:11;3.40;99.90
21563;DHT22;10942;47.894;11.424;2023-01-28T11:18:40;3.90;99.90
21563;DHT22;10942;47.894;11.424;2023-01-28T11:21:19;4.00;99.90
21563;DHT22;10942;47.894;11.424;2023-01-28T11:24:00;3.50;99.90
21563;DHT22;10942;47.894;11.424;2023-01-28T11:26:37;3.40;99.90
21563;DHT22;10942;47.894;11.424;2023-01-28T11:29:04;3.30;99.90
21563;DHT22;10942;47.894;11.424;2023-01-28T11:31:36;3.30;99.90
21563;DHT22;10942;47.894;11.424;2023-01-28T11:34:04;3.20;99.90
21563;DHT22;10942;47.894;11.424;2023-01-28T11:36:32;3.20;99.90
21563;DHT22;10942;47.894;11.424;2023-01-28T11:39:15;3.10;99.90
21563;DHT22;10942;47.894;11.424;2023-01-28T11:41:41;2.90;99.90
21563;DHT22;10942;47.894;11.424;2023-01-28T11:44:25;2.80;99.90
21563;DHT22;10942;47.894;11.424;2023-01-28T11:52:32;2.80;99.90
21563;DHT22;10942;47.894;11.424;2023-01-28T12:06:38;1.70;99.90
21563;DHT22;10942;47.894;11.424;2023-01-28T12:12:14;1.60;99.90
21563;DHT22;10942;47.894;11.424;2023-01-28T12:15:16;1.70;99.90
21563;DHT22;10942;47.894;11.424;2023-01-28T12:18:08;1.60;99.90
21563;DHT22;10942;47.894;11.424;2023-01-28T12:20:42;1.40;99.90
21563;DHT22;10942;47.894;11.424;2023-01-28T12:23:24;1.30;99.90
21563;DHT22;10942;47.894;11.424;2023-01-28T12:26:14;1.30;99.90
21563;DHT22;10942;47.894;11.424;2023-01-28T12:32:32;1.40;99.90
21563;DHT22;10942;47.894;11.424;2023-01-28T12:40:20;1.10;99.90
21563;DHT22;10942;47.894;11.424;2023-01-28T12:42:55;1.20;99.90
21563;DHT22;10942;47.894;11.424;2023-01-28T12:45:27;1.20;99.90
21563;DHT22;10942;47.894;11.424;2023-01-28T12:48:06;1.30;99.90
21563;DHT22;10942;47.894;11.424;2023-01-28T12:50:44;1.20;99.90
21563;DHT22;10942;47.894;11.424;2023-01-28T13:01:15;1.20;99.90
21563;DHT22;10942;47.894;11.424;2023-01-28T13:06:23;1.30;99.90
21563;DHT22;10942;47.894;11.424;2023-01-28T13:08:57;1.30;99.90
21563;DHT22;10942;47.894;11.424;2023-01-28T13:11:29;1.10;99.90
21563;DHT22;10942;47.894;11.424;2023-01-28T13:13:57;1.20;99.90
21563;DHT22;10942;47.894;11.424;2023-01-28T13:16:22;1.10;99.90
21563;DHT22;10942;47.894;11.424;2023-01-28T13:18:48;1.00;99.90
21563;DHT22;10942;47.894;11.424;2023-01-28T13:23:50;1.20;99.90
21563;DHT22;10942;47.894;11.424;2023-01-28T13:26:56;1.20;99.90
21563;DHT22;10942;47.894;11.424;2023-01-28T13:29:31;1.00;99.90
21563;DHT22;10942;47.894;11.424;2023-01-28T13:32:00;1.10;99.90
21563;DHT22;10942;47.894;11.424;2023-01-28T13:34:37;1.20;99.90
21563;DHT22;10942;47.894;11.424;2023-01-28T13:37:33;1.20;99.90
21563;DHT22;10942;47.894;11.424;2023-01-28T13:40:25;1.40;99.90
21563;DHT22;10942;47.894;11.424;2023-01-28T13:43:05;1.30;99.90
21563;DHT22;10942;47.894;11.424;2023-01-28T13:45:32;1.20;99.90
21563;DHT22;10942;47.894;11.424;2023-01-28T13:48:26;1.20;99.90
21563;DHT22;10942;47.894;11.424;2023-01-28T13:50:55;1.30;99.90
21563;DHT22;10942;47.894;11.424;2023-01-28T13:53:40;1.30;99.90
21563;DHT22;10942;47.894;11.424;2023-01-28T13:56:21;1.20;99.90
21563;DHT22;10942;47.894;11.424;2023-01-28T14:04:38;1.30;99.90
21563;DHT22;10942;47.894;11.424;2023-01-28T14:12:48;1.20;99.90
21563;DHT22;10942;47.894;11.424;2023-01-28T14:20:50;1.20;99.90
21563;DHT22;10942;47.894;11.424;2023-01-28T14:23:19;1.10;99.90
21563;DHT22;10942;47.894;11.424;2023-01-28T14:26:15;1.10;99.90
21563;DHT22;10942;47.894;11.424;2023-01-28T14:31:34;0.90;99.90
21563;DHT22;10942;47.894;11.424;2023-01-28T14:36:43;0.80;99.90
21563;DHT22;10942;47.894;11.424;2023-01-28T14:39:18;0.70;99.90
21563;DHT22;10942;47.894;11.424;2023-01-28T14:41:47;0.80;99.90
21563;DHT22;10942;47.894;11.424;2023-01-28T14:47:36;0.60;99.90
21563;DHT22;10942;47.894;11.424;2023-01-28T14:58:30;0.40;99.90
21563;DHT22;10942;47.894;11.424;2023-01-28T15:00:59;0.50;99.90
21563;DHT22;10942;47.894;11.424;2023-01-28T15:03:27;0.40;99.90
21563;DHT22;10942;47.894;11.424;2023-01-28T15:06:11;0.40;99.90
21563;DHT22;10942;47.894;11.424;2023-01-28T15:08:38;0.40;99.90
21563;DHT22;10942;47.894;11.424;2023-01-28T15:11:06;0.40;99.90
21563;DHT22;10942;47.894;11.424;2023-01-28T15:13:36;0.40;99.90
21563;DHT22;10942;47.894;11.424;2023-01-28T15:16:04;0.40;99.90
21563;DHT22;10942;47.894;11.424;2023-01-28T15:18:35;0.40;99.90
21563;DHT22;10942;47.894;11.424;2023-01-28T15:21:02;0.40;99.90
21563;DHT22;10942;47.894;11.424;2023-01-28T15:23:37;0.30;99.90
21563;DHT22;10942;47.894;11.424;2023-01-28T15:26:16;0.30;99.90
21563;DHT22;10942;47.894;11.424;2023-01-28T15:28:44;0.30;99.90
21563;DHT22;10942;47.894;11.424;2023-01-28T15:31:22;0.30;99.90
21563;DHT22;10942;47.894;11.424;2023-01-28T15:34:02;0.30;99.90
21563;DHT22;10942;47.894;11.424;2023-01-28T15:36:34;0.30;99.90
21563;DHT22;10942;47.894;11.424;2023-01-28T15:39:01;0.30;99.90
21563;DHT22;10942;47.894;11.424;2023-01-28T15:41:32;0.20;99.90
21563;DHT22;10942;47.894;11.424;2023-01-28T15:43:59;0.10;99.90
21563;DHT22;10942;47.894;11.424;2023-01-28T15:46:25;0.10;99.90
21563;DHT22;10942;47.894;11.424;2023-01-28T15:48:59;0.00;99.90
21563;DHT22;10942;47.894;11.424;2023-01-28T15:51:28;0.10;99.90
21563;DHT22;10942;47.894;11.424;2023-01-28T15:54:05;0.10;99.90
21563;DHT22;10942;47.894;11.424;2023-01-28T15:56:32;0.00;99.90
21563;DHT22;10942;47.894;11.424;2023-01-28T15:59:18;0.00;99.90
21563;DHT22;10942;47.894;11.424;2023-01-28T16:01:45;0.00;99.90
21563;DHT22;10942;47.894;11.424;2023-01-28T16:04:26;0.00;99.90
21563;DHT22;10942;47.894;11.424;2023-01-28T16:06:52;-0.10;99.90
21563;DHT22;10942;47.894;11.424;2023-01-28T16:09:26;-0.10;99.90
21563;DHT22;10942;47.894;11.424;2023-01-28T16:11:53;0.00;99.90
21563;DHT22;10942;47.894;11.424;2023-01-28T16:14:57;-0.10;99.90
21563;DHT22;10942;47.894;11.424;2023-01-28T16:17:29;-0.20;99.90
21563;DHT22;10942;47.894;11.424;2023-01-28T16:20:05;-0.10;99.90
21563;DHT22;10942;47.894;11.424;2023-01-28T16:22:36;-0.10;99.90
21563;DHT22;10942;47.894;11.424;2023-01-28T16:27:47;0.00;99.90
21563;DHT22;10942;47.894;11.424;2023-01-28T16:30:14;-0.10;99.90
21563;DHT22;10942;47.894;11.424;2023-01-28T16:32:40;0.00;99.90
21563;DHT22;10942;47.894;11.424;2023-01-28T16:35:23;-0.10;99.90
21563;DHT22;10942;47.894;11.424;2023-01-28T16:37:50;-0.10;99.90
21563;DHT22;10942;47.894;11.424;2023-01-28T16:40:19;-0.10;99.90
21563;DHT22;10942;47.894;11.424;2023-01-28T16:42:45;-0.10;99.90
21563;DHT22;10942;47.894;11.424;2023-01-28T16:45:21;-0.10;99.90
21563;DHT22;10942;47.894;11.424;2023-01-28T16:47:47;-0.20;99.90
21563;DHT22;10942;47.894;11.424;2023-01-28T16:50:14;-0.10;99.90
21563;DHT22;10942;47.894;11.424;2023-01-28T16:52:45;-0.10;99.90
21563;DHT22;10942;47.894;11.424;2023-01-28T16:55:12;-0.10;99.90
21563;DHT22;10942;47.894;11.424;2023-01-28T16:57:38;-0.10;99.90
21563;DHT22;10942;47.894;11.424;2023-01-28T17:00:05;-0.10;99.90
21563;DHT22;10942;47.894;11.424;2023-01-28T17:02:31;-0.20;99.90
21563;DHT22;10942;47.894;11.424;2023-01-28T17:04:56;-0.20;99.90
21563;DHT22;10942;47.894;11.424;2023-01-28T17:07:22;-0.10;99.90
21563;DHT22;10942;47.894;11.424;2023-01-28T17:09:48;-0.10;99.90
21563;DHT22;10942;47.894;11.424;2023-01-28T17:12:14;0.00;99.90
21563;DHT22;10942;47.894;11.424;2023-01-28T17:14:40;-0.10;99.90
21563;DHT22;10942;47.894;11.424;2023-01-28T17:17:05;-0.10;99.90
21563;DHT22;10942;47.894;11.424;2023-01-28T17:19:31;0.00;99.90
21563;DHT22;10942;47.894;11.424;2023-01-28T17:21:57;0.00;99.90
21563;DHT22;10942;47.894;11.424;2023-01-28T17:24:24;-0.10;99.90
21563;DHT22;10942;47.894;11.424;2023-01-28T17:26:53;-0.10;99.90
21563;DHT22;10942;47.894;11.424;2023-01-28T17:29:18;-0.20;99.90
21563;DHT22;10942;47.894;11.424;2023-01-28T17:31:44;-0.10;99.90
21563;DHT22;10942;47.894;11.424;2023-01-28T17:34:10;-0.10;99.90
21563;DHT22;10942;47.894;11.424;2023-01-28T17:36:37;0.00;99.90
21563;DHT22;10942;47.894;11.424;2023-01-28T17:39:03;-0.10;99.90
21563;DHT22;10942;47.894;11.424;2023-01-28T17:41:30;0.00;99.90
21563;DHT22;10942;47.894;11.424;2023-01-28T17:43:56;0.10;99.90
21563;DHT22;10942;47.894;11.424;2023-01-28T17:46:24;0.00;99.90
21563;DHT22;10942;47.894;11.424;2023-01-28T17:48:50;0.00;99.90
21563;DHT22;10942;47.894;11.424;2023-01-28T17:51:16;0.00;99.90
21563;DHT22;10942;47.894;11.424;2023-01-28T17:53:49;0.10;99.90
21563;DHT22;10942;47.894;11.424;2023-01-28T17:56:24;0.10;99.90
21563;DHT22;10942;47.894;11.424;2023-01-28T17:58:55;0.10;99.90